sensor_id;sensor_type;location;lat;lon;timestamp;temperature;humidity
18297;DHT22;18066;52.106;5.534;2023-10-08T00:00:32;18.20;99.90
18297;DHT22;18066;52.106;5.534;2023-10-08T00:03:21;18.20;99.90
18297;DHT22;18066;52.106;5.534;2023-10-08T00:05:48;18.20;99.90
18297;DHT22;18066;52.106;5.534;2023-10-08T00:08:16;18.20;99.90
18297;DHT22;18066;52.106;5.534;2023-10-08T00:10:42;18.10;99.90
18297;DHT22;18066;52.106;5.534;2023-10-08T00:13:12;18.20;99.90
18297;DHT22;18066;52.106;5.534;2023-10-08T00:15:42;18.20;99.90
18297;DHT22;18066;52.106;5.534;2023-10-08T00:18:17;18.20;99.90
18297;DHT22;18066;52.106;5.534;2023-10-08T00:20:44;18.20;99.90
18297;DHT22;18066;52.106;5.534;2023-10-08T00:23:13;18.20;99.90
18297;DHT22;18066;52.106;5.534;2023-10-08T00:25:43;18.20;99.90
18297;DHT22;18066;52.106;5.534;2023-10-08T00:28:14;18.20;99.90
18297;DHT22;18066;52.106;5.534;2023-10-08T00:30:42;18.20;99.90
18297;DHT22;18066;52.106;5.534;2023-10-08T00:33:10;18.20;99.90
18297;DHT22;18066;52.106;5.534;2023-10-08T00:35:38;18.10;99.90
18297;DHT22;18066;52.106;5.534;2023-10-08T00:38:06;18.20;99.90
18297;DHT22;18066;52.106;5.534;2023-10-08T00:40:40;18.20;99.90
18297;DHT22;18066;52.106;5.534;2023-10-08T00:43:11;18.20;99.90
18297;DHT22;18066;52.106;5.534;2023-10-08T00:45:57;18.10;99.90
18297;DHT22;18066;52.106;5.534;2023-10-08T00:48:25;18.10;99.90
18297;DHT22;18066;52.106;5.534;2023-10-08T00:50:55;18.20;99.90
18297;DHT22;18066;52.106;5.534;2023-10-08T00:53:34;18.10;99.90
18297;DHT22;18066;52.106;5.534;2023-10-08T00:56:04;18.10;99.90
18297;DHT22;18066;52.106;5.534;2023-10-08T00:58:36;18.10;99.90
18297;DHT22;18066;52.106;5.534;2023-10-08T01:01:07;18.20;99.90
18297;DHT22;18066;52.106;5.534;2023-10-08T01:03:36;18.10;99.90
18297;DHT22;18066;52.106;5.534;2023-10-08T01:06:10;18.10;99.90
18297;DHT22;18066;52.106;5.534;2023-10-08T01:08:38;18.10;99.90
18297;DHT22;18066;52.106;5.534;2023-10-08T01:11:19;18.10;99.90
18297;DHT22;18066;52.106;5.534;2023-10-08T01:13:48;18.10;99.90
18297;DHT22;18066;52.106;5.534;2023-10-08T01:16:16;18.20;99.90
18297;DHT22;18066;52.106;5.534;2023-10-08T01:18:43;18.10;99.90
18297;DHT22;18066;52.106;5.534;2023-10-08T01:21:17;18.10;99.90
18297;DHT22;18066;52.106;5.534;2023-10-08T01:24:01;18.10;99.90
18297;DHT22;18066;52.106;5.534;2023-10-08T01:26:31;18.10;99.90
18297;DHT22;18066;52.106;5.534;2023-10-08T01:28:58;18.10;99.90
18297;DHT22;18066;52.106;5.534;2023-10-08T01:31:29;18.00;99.90
18297;DHT22;18066;52.106;5.534;2023-10-08T01:33:57;18.00;99.90
18297;DHT22;18066;52.106;5.534;2023-10-08T01:36:24;18.00;99.90
18297;DHT22;18066;52.106;5.534;2023-10-08T01:38:51;18.00;99.90
18297;DHT22;18066;52.106;5.534;2023-10-08T01:41:21;18.00;99.90
18297;DHT22;18066;52.106;5.534;2023-10-08T01:43:56;18.00;99.90
18297;DHT22;18066;52.106;5.534;2023-10-08T01:46:24;17.90;99.90
18297;DHT22;18066;52.106;5.534;2023-10-08T01:48:53;17.90;99.90
18297;DHT22;18066;52.106;5.534;2023-10-08T01:51:25;17.90;99.90
18297;DHT22;18066;52.106;5.534;2023-10-08T01:54:02;17.90;99.90
18297;DHT22;18066;52.106;5.534;2023-10-08T01:56:37;17.90;99.90
18297;DHT22;18066;52.106;5.534;2023-10-08T01:59:07;17.90;99.90
18297;DHT22;18066;52.106;5.534;2023-10-08T02:01:34;17.90;99.90
18297;DHT22;18066;52.106;5.534;2023-10-08T02:04:01;17.90;99.90
18297;DHT22;18066;52.106;5.534;2023-10-08T02:06:28;17.90;99.90
18297;DHT22;18066;52.106;5.534;2023-10-08T02:08:56;17.90;99.90
18297;DHT22;18066;52.106;5.534;2023-10-08T02:11:24;17.90;99.90
18297;DHT22;18066;52.106;5.534;2023-10-08T02:13:54;17.90;99.90
18297;DHT22;18066;52.106;5.534;2023-10-08T02:16:21;17.80;99.90
18297;DHT22;18066;52.106;5.534;2023-10-08T02:18:49;17.90;99.90
18297;DHT22;18066;52.106;5.534;2023-10-08T02:21:16;17.90;99.90
18297;DHT22;18066;52.106;5.534;2023-10-08T02:23:43;17.90;99.90
18297;DHT22;18066;52.106;5.534;2023-10-08T02:26:10;17.90;99.90
18297;DHT22;18066;52.106;5.534;2023-10-08T02:28:39;17.90;99.90
18297;DHT22;18066;52.106;5.534;2023-10-08T02:31:07;17.90;99.90
18297;DHT22;18066;52.106;5.534;2023-10-08T02:33:34;17.90;99.90
18297;DHT22;18066;52.106;5.534;2023-10-08T02:36:02;17.80;99.90
18297;DHT22;18066;52.106;5.534;2023-10-08T02:38:30;17.90;99.90
18297;DHT22;18066;52.106;5.534;2023-10-08T02:41:03;17.80;99.90
18297;DHT22;18066;52.106;5.534;2023-10-08T02:43:32;17.80;99.90
18297;DHT22;18066;52.106;5.534;2023-10-08T02:45:59;17.80;99.90
18297;DHT22;18066;52.106;5.534;2023-10-08T02:48:27;17.90;99.90
18297;DHT22;18066;52.106;5.534;2023-10-08T02:50:55;17.90;99.90
18297;DHT22;18066;52.106;5.534;2023-10-08T02:53:32;17.80;99.90
18297;DHT22;18066;52.106;5.534;2023-10-08T02:55:59;17.80;99.90
18297;DHT22;18066;52.106;5.534;2023-10-08T02:58:27;17.80;99.90
18297;DHT22;18066;52.106;5.534;2023-10-08T03:00:56;17.90;99.90
18297;DHT22;18066;52.106;5.534;2023-10-08T03:03:23;17.80;99.90
18297;DHT22;18066;52.106;5.534;2023-10-08T03:05:52;17.80;99.90
18297;DHT22;18066;52.106;5.534;2023-10-08T03:08:22;17.90;99.90
18297;DHT22;18066;52.106;5.534;2023-10-08T03:10:50;17.90;99.90
18297;DHT22;18066;52.106;5.534;2023-10-08T03:13:20;17.90;99.90
18297;DHT22;18066;52.106;5.534;2023-10-08T03:15:48;17.90;99.90
18297;DHT22;18066;52.106;5.534;2023-10-08T03:18:34;17.90;99.90
18297;DHT22;18066;52.106;5.534;2023-10-08T03:21:05;17.90;99.90
18297;DHT22;18066;52.106;5.534;2023-10-08T03:23:45;17.80;99.90
18297;DHT22;18066;52.106;5.534;2023-10-08T03:26:16;17.80;99.90
18297;DHT22;18066;52.106;5.534;2023-10-08T03:29:00;17.80;99.90
18297;DHT22;18066;52.106;5.534;2023-10-08T03:31:31;17.80;99.90
18297;DHT22;18066;52.106;5.534;2023-10-08T03:34:15;17.80;99.90
18297;DHT22;18066;52.106;5.534;2023-10-08T03:36:46;17.70;99.90
18297;DHT22;18066;52.106;5.534;2023-10-08T03:39:15;17.80;99.90
18297;DHT22;18066;52.106;5.534;2023-10-08T03:41:44;17.80;99.90
18297;DHT22;18066;52.106;5.534;2023-10-08T03:44:25;17.80;99.90
18297;DHT22;18066;52.106;5.534;2023-10-08T03:46:55;17.80;99.90
18297;DHT22;18066;52.106;5.534;2023-10-08T03:49:22;17.80;99.90
18297;DHT22;18066;52.106;5.534;2023-10-08T03:51:53;17.80;99.90
18297;DHT22;18066;52.106;5.534;2023-10-08T03:54:23;17.80;99.90
18297;DHT22;18066;52.106;5.534;2023-10-08T03:57:00;17.90;99.90
18297;DHT22;18066;52.106;5.534;2023-10-08T03:59:30;17.90;99.90
18297;DHT22;18066;52.106;5.534;2023-10-08T04:01:58;17.90;99.90
18297;DHT22;18066;52.106;5.534;2023-10-08T04:04:35;17.90;99.90
18297;DHT22;18066;52.106;5.534;2023-10-08T04:07:18;17.90;99.90
18297;DHT22;18066;52.106;5.534;2023-10-08T04:09:54;18.00;99.90
18297;DHT22;18066;52.106;5.534;2023-10-08T04:12:41;18.00;99.90
18297;DHT22;18066;52.106;5.534;2023-10-08T04:15:10;18.00;99.90
18297;DHT22;18066;52.106;5.534;2023-10-08T04:17:38;17.90;99.90
18297;DHT22;18066;52.106;5.534;2023-10-08T04:20:12;17.90;99.90
18297;DHT22;18066;52.106;5.534;2023-10-08T04:22:58;17.90;99.90
18297;DHT22;18066;52.106;5.534;2023-10-08T04:25:25;17.90;99.90
18297;DHT22;18066;52.106;5.534;2023-10-08T04:27:53;17.80;99.90
18297;DHT22;18066;52.106;5.534;2023-10-08T04:30:24;17.70;99.90
18297;DHT22;18066;52.106;5.534;2023-10-08T04:32:58;17.60;99.90
18297;DHT22;18066;52.106;5.534;2023-10-08T04:35:32;17.50;99.90
18297;DHT22;18066;52.106;5.534;2023-10-08T04:38:03;17.30;99.90
18297;DHT22;18066;52.106;5.534;2023-10-08T04:40:34;17.20;99.90
18297;DHT22;18066;52.106;5.534;2023-10-08T04:43:07;17.10;99.90
18297;DHT22;18066;52.106;5.534;2023-10-08T04:45:36;17.10;99.90
18297;DHT22;18066;52.106;5.534;2023-10-08T04:48:04;17.10;99.90
18297;DHT22;18066;52.106;5.534;2023-10-08T04:50:35;17.10;99.90
18297;DHT22;18066;52.106;5.534;2023-10-08T04:53:04;17.10;99.90
18297;DHT22;18066;52.106;5.534;2023-10-08T04:55:34;17.00;99.90
18297;DHT22;18066;52.106;5.534;2023-10-08T04:58:07;17.00;99.90
18297;DHT22;18066;52.106;5.534;2023-10-08T05:00:42;16.80;99.90
18297;DHT22;18066;52.106;5.534;2023-10-08T05:03:19;16.60;99.90
18297;DHT22;18066;52.106;5.534;2023-10-08T05:05:48;16.40;99.90
18297;DHT22;18066;52.106;5.534;2023-10-08T05:08:35;16.40;99.90
18297;DHT22;18066;52.106;5.534;2023-10-08T05:11:13;16.40;99.90
18297;DHT22;18066;52.106;5.534;2023-10-08T05:14:02;16.30;99.90
18297;DHT22;18066;52.106;5.534;2023-10-08T05:16:41;16.30;99.90
18297;DHT22;18066;52.106;5.534;2023-10-08T05:19:25;16.20;99.90
18297;DHT22;18066;52.106;5.534;2023-10-08T05:22:15;16.20;99.90
18297;DHT22;18066;52.106;5.534;2023-10-08T05:24:57;16.00;99.90
18297;DHT22;18066;52.106;5.534;2023-10-08T05:27:33;15.80;99.90
18297;DHT22;18066;52.106;5.534;2023-10-08T05:30:22;15.70;99.90
18297;DHT22;18066;52.106;5.534;2023-10-08T05:32:54;15.70;99.90
18297;DHT22;18066;52.106;5.534;2023-10-08T05:35:38;15.70;99.90
18297;DHT22;18066;52.106;5.534;2023-10-08T05:38:25;15.70;99.90
18297;DHT22;18066;52.106;5.534;2023-10-08T05:41:11;15.80;99.90
18297;DHT22;18066;52.106;5.534;2023-10-08T05:43:56;15.70;99.90
18297;DHT22;18066;52.106;5.534;2023-10-08T05:46:37;15.70;99.90
18297;DHT22;18066;52.106;5.534;2023-10-08T05:49:12;15.70;99.90
18297;DHT22;18066;52.106;5.534;2023-10-08T05:52:02;15.80;99.90
18297;DHT22;18066;52.106;5.534;2023-10-08T05:54:51;15.60;99.90
18297;DHT22;18066;52.106;5.534;2023-10-08T05:57:36;15.30;99.90
18297;DHT22;18066;52.106;5.534;2023-10-08T06:00:07;15.30;99.90
18297;DHT22;18066;52.106;5.534;2023-10-08T06:02:57;15.30;99.90
18297;DHT22;18066;52.106;5.534;2023-10-08T06:05:37;15.40;99.90
18297;DHT22;18066;52.106;5.534;2023-10-08T06:08:12;15.30;99.90
18297;DHT22;18066;52.106;5.534;2023-10-08T06:10:40;15.40;99.90
18297;DHT22;18066;52.106;5.534;2023-10-08T06:13:23;15.40;99.90
18297;DHT22;18066;52.106;5.534;2023-10-08T06:16:04;15.30;99.90
18297;DHT22;18066;52.106;5.534;2023-10-08T06:18:34;15.20;99.90
18297;DHT22;18066;52.106;5.534;2023-10-08T06:21:01;15.10;99.90
18297;DHT22;18066;52.106;5.534;2023-10-08T06:23:34;15.00;99.90
18297;DHT22;18066;52.106;5.534;2023-10-08T06:26:02;15.00;99.90
18297;DHT22;18066;52.106;5.534;2023-10-08T06:28:42;15.00;99.90
18297;DHT22;18066;52.106;5.534;2023-10-08T06:31:10;15.00;99.90
18297;DHT22;18066;52.106;5.534;2023-10-08T06:33:42;15.10;99.90
18297;DHT22;18066;52.106;5.534;2023-10-08T06:36:10;15.10;99.90
18297;DHT22;18066;52.106;5.534;2023-10-08T06:38:43;15.10;99.90
18297;DHT22;18066;52.106;5.534;2023-10-08T06:41:11;15.00;99.90
18297;DHT22;18066;52.106;5.534;2023-10-08T06:43:46;15.00;99.90
18297;DHT22;18066;52.106;5.534;2023-10-08T06:46:15;15.00;99.90
18297;DHT22;18066;52.106;5.534;2023-10-08T06:48:44;15.00;99.90
18297;DHT22;18066;52.106;5.534;2023-10-08T06:51:12;14.90;99.90
18297;DHT22;18066;52.106;5.534;2023-10-08T06:53:39;14.90;99.90
18297;DHT22;18066;52.106;5.534;2023-10-08T06:56:06;14.90;99.90
18297;DHT22;18066;52.106;5.534;2023-10-08T06:58:35;14.90;99.90
18297;DHT22;18066;52.106;5.534;2023-10-08T07:01:04;14.90;99.90
18297;DHT22;18066;52.106;5.534;2023-10-08T07:03:35;14.90;99.90
18297;DHT22;18066;52.106;5.534;2023-10-08T07:06:03;15.00;99.90
18297;DHT22;18066;52.106;5.534;2023-10-08T07:08:42;15.10;99.90
18297;DHT22;18066;52.106;5.534;2023-10-08T07:11:12;15.10;99.90
18297;DHT22;18066;52.106;5.534;2023-10-08T07:13:40;15.20;99.90
18297;DHT22;18066;52.106;5.534;2023-10-08T07:16:09;15.30;99.90
18297;DHT22;18066;52.106;5.534;2023-10-08T07:18:38;15.50;99.90
18297;DHT22;18066;52.106;5.534;2023-10-08T07:21:05;15.40;99.90
18297;DHT22;18066;52.106;5.534;2023-10-08T07:23:38;15.40;99.90
18297;DHT22;18066;52.106;5.534;2023-10-08T07:26:21;15.40;99.90
18297;DHT22;18066;52.106;5.534;2023-10-08T07:28:50;15.60;99.90
18297;DHT22;18066;52.106;5.534;2023-10-08T07:31:20;15.60;99.90
18297;DHT22;18066;52.106;5.534;2023-10-08T07:33:49;15.50;99.90
18297;DHT22;18066;52.106;5.534;2023-10-08T07:36:22;15.70;99.90
18297;DHT22;18066;52.106;5.534;2023-10-08T07:38:49;15.60;99.90
18297;DHT22;18066;52.106;5.534;2023-10-08T07:41:16;15.70;99.90
18297;DHT22;18066;52.106;5.534;2023-10-08T07:43:45;15.80;99.90
18297;DHT22;18066;52.106;5.534;2023-10-08T07:46:20;16.10;99.90
18297;DHT22;18066;52.106;5.534;2023-10-08T07:48:47;16.00;99.90
18297;DHT22;18066;52.106;5.534;2023-10-08T07:51:15;16.20;99.90
18297;DHT22;18066;52.106;5.534;2023-10-08T07:53:45;16.30;99.90
18297;DHT22;18066;52.106;5.534;2023-10-08T07:56:12;16.20;99.90
18297;DHT22;18066;52.106;5.534;2023-10-08T07:58:39;16.30;99.90
18297;DHT22;18066;52.106;5.534;2023-10-08T08:01:07;16.30;99.90
18297;DHT22;18066;52.106;5.534;2023-10-08T08:03:36;16.30;99.90
18297;DHT22;18066;52.106;5.534;2023-10-08T08:06:04;16.00;99.90
18297;DHT22;18066;52.106;5.534;2023-10-08T08:08:33;16.00;99.90
18297;DHT22;18066;52.106;5.534;2023-10-08T08:11:01;16.00;99.90
18297;DHT22;18066;52.106;5.534;2023-10-08T08:13:32;16.10;99.90
18297;DHT22;18066;52.106;5.534;2023-10-08T08:15:59;16.20;99.90
18297;DHT22;18066;52.106;5.534;2023-10-08T08:18:36;16.20;99.90
18297;DHT22;18066;52.106;5.534;2023-10-08T08:21:03;16.30;99.90
18297;DHT22;18066;52.106;5.534;2023-10-08T08:23:40;16.30;99.90
18297;DHT22;18066;52.106;5.534;2023-10-08T08:26:06;16.30;99.90
18297;DHT22;18066;52.106;5.534;2023-10-08T08:28:38;16.30;99.90
18297;DHT22;18066;52.106;5.534;2023-10-08T08:31:10;16.40;99.90
18297;DHT22;18066;52.106;5.534;2023-10-08T08:33:44;16.50;99.90
18297;DHT22;18066;52.106;5.534;2023-10-08T08:36:26;16.60;99.90
18297;DHT22;18066;52.106;5.534;2023-10-08T08:38:53;16.70;99.90
18297;DHT22;18066;52.106;5.534;2023-10-08T08:41:20;16.80;99.90
18297;DHT22;18066;52.106;5.534;2023-10-08T08:43:50;16.70;99.90
18297;DHT22;18066;52.106;5.534;2023-10-08T08:46:28;16.80;99.90
18297;DHT22;18066;52.106;5.534;2023-10-08T08:49:01;16.70;99.90
18297;DHT22;18066;52.106;5.534;2023-10-08T08:51:29;16.70;99.90
18297;DHT22;18066;52.106;5.534;2023-10-08T08:53:57;16.70;99.90
18297;DHT22;18066;52.106;5.534;2023-10-08T08:56:26;16.80;99.90
18297;DHT22;18066;52.106;5.534;2023-10-08T08:58:55;16.80;99.90
18297;DHT22;18066;52.106;5.534;2023-10-08T09:01:22;16.90;99.90
18297;DHT22;18066;52.106;5.534;2023-10-08T09:03:49;17.10;99.90
18297;DHT22;18066;52.106;5.534;2023-10-08T09:06:17;17.30;99.90
18297;DHT22;18066;52.106;5.534;2023-10-08T09:08:47;17.50;99.90
18297;DHT22;18066;52.106;5.534;2023-10-08T09:11:16;17.70;99.90
18297;DHT22;18066;52.106;5.534;2023-10-08T09:13:43;17.80;99.90
18297;DHT22;18066;52.106;5.534;2023-10-08T09:16:12;17.80;99.90
18297;DHT22;18066;52.106;5.534;2023-10-08T09:18:41;17.80;99.90
18297;DHT22;18066;52.106;5.534;2023-10-08T09:21:11;17.80;99.90
18297;DHT22;18066;52.106;5.534;2023-10-08T09:23:41;17.80;99.90
18297;DHT22;18066;52.106;5.534;2023-10-08T09:26:13;17.90;99.90
18297;DHT22;18066;52.106;5.534;2023-10-08T09:28:44;18.10;99.90
18297;DHT22;18066;52.106;5.534;2023-10-08T09:31:12;18.10;99.90
18297;DHT22;18066;52.106;5.534;2023-10-08T09:33:39;18.20;99.90
18297;DHT22;18066;52.106;5.534;2023-10-08T09:36:08;18.20;99.90
18297;DHT22;18066;52.106;5.534;2023-10-08T09:38:36;18.30;99.90
18297;DHT22;18066;52.106;5.534;2023-10-08T09:41:06;18.40;99.90
18297;DHT22;18066;52.106;5.534;2023-10-08T09:43:34;18.50;99.90
18297;DHT22;18066;52.106;5.534;2023-10-08T09:46:13;18.50;99.90
18297;DHT22;18066;52.106;5.534;2023-10-08T09:48:48;18.60;99.90
18297;DHT22;18066;52.106;5.534;2023-10-08T09:51:16;18.60;99.90
18297;DHT22;18066;52.106;5.534;2023-10-08T09:53:51;18.70;99.90
18297;DHT22;18066;52.106;5.534;2023-10-08T09:56:20;18.70;99.90
18297;DHT22;18066;52.106;5.534;2023-10-08T09:58:48;18.70;99.90
18297;DHT22;18066;52.106;5.534;2023-10-08T10:01:17;18.70;99.90
18297;DHT22;18066;52.106;5.534;2023-10-08T10:03:45;18.70;99.90
18297;DHT22;18066;52.106;5.534;2023-10-08T10:06:13;18.70;99.90
18297;DHT22;18066;52.106;5.534;2023-10-08T10:08:42;18.70;99.90
18297;DHT22;18066;52.106;5.534;2023-10-08T10:11:09;18.70;99.90
18297;DHT22;18066;52.106;5.534;2023-10-08T10:13:42;18.80;99.90
18297;DHT22;18066;52.106;5.534;2023-10-08T10:16:10;18.90;99.90
18297;DHT22;18066;52.106;5.534;2023-10-08T10:18:39;18.90;99.90
18297;DHT22;18066;52.106;5.534;2023-10-08T10:21:25;19.00;99.90
18297;DHT22;18066;52.106;5.534;2023-10-08T10:23:53;19.00;99.90
18297;DHT22;18066;52.106;5.534;2023-10-08T10:26:25;19.00;99.90
18297;DHT22;18066;52.106;5.534;2023-10-08T10:29:23;19.00;99.90
18297;DHT22;18066;52.106;5.534;2023-10-08T10:31:53;19.10;99.90
18297;DHT22;18066;52.106;5.534;2023-10-08T10:34:24;19.10;99.90
18297;DHT22;18066;52.106;5.534;2023-10-08T10:36:53;19.20;99.90
18297;DHT22;18066;52.106;5.534;2023-10-08T10:39:25;19.10;99.90
18297;DHT22;18066;52.106;5.534;2023-10-08T10:41:53;19.20;99.90
18297;DHT22;18066;52.106;5.534;2023-10-08T10:44:25;19.20;99.90
18297;DHT22;18066;52.106;5.534;2023-10-08T10:46:52;19.10;99.90
18297;DHT22;18066;52.106;5.534;2023-10-08T10:49:39;19.10;99.90
18297;DHT22;18066;52.106;5.534;2023-10-08T10:52:14;19.30;99.90
18297;DHT22;18066;52.106;5.534;2023-10-08T10:54:51;19.30;99.90
18297;DHT22;18066;52.106;5.534;2023-10-08T10:57:25;19.50;99.90
18297;DHT22;18066;52.106;5.534;2023-10-08T11:00:02;19.50;99.90
18297;DHT22;18066;52.106;5.534;2023-10-08T11:02:44;19.60;99.90
18297;DHT22;18066;52.106;5.534;2023-10-08T11:05:15;19.70;99.90
18297;DHT22;18066;52.106;5.534;2023-10-08T11:07:45;19.60;99.90
18297;DHT22;18066;52.106;5.534;2023-10-08T11:10:13;19.70;99.90
18297;DHT22;18066;52.106;5.534;2023-10-08T11:12:41;19.70;99.90
18297;DHT22;18066;52.106;5.534;2023-10-08T11:15:14;19.80;99.90
18297;DHT22;18066;52.106;5.534;2023-10-08T11:17:42;19.70;99.90
18297;DHT22;18066;52.106;5.534;2023-10-08T11:20:25;19.80;99.90
18297;DHT22;18066;52.106;5.534;2023-10-08T11:22:52;19.80;99.90
18297;DHT22;18066;52.106;5.534;2023-10-08T11:25:21;19.80;99.90
18297;DHT22;18066;52.106;5.534;2023-10-08T11:27:48;19.90;99.90
18297;DHT22;18066;52.106;5.534;2023-10-08T11:30:19;19.90;99.90
18297;DHT22;18066;52.106;5.534;2023-10-08T11:32:46;19.90;99.90
18297;DHT22;18066;52.106;5.534;2023-10-08T11:35:15;19.90;99.90
18297;DHT22;18066;52.106;5.534;2023-10-08T11:37:45;19.90;99.90
18297;DHT22;18066;52.106;5.534;2023-10-08T11:40:22;19.70;99.90
18297;DHT22;18066;52.106;5.534;2023-10-08T11:42:53;19.60;99.90
18297;DHT22;18066;52.106;5.534;2023-10-08T11:45:24;19.50;99.90
18297;DHT22;18066;52.106;5.534;2023-10-08T11:47:52;19.40;99.90
18297;DHT22;18066;52.106;5.534;2023-10-08T11:50:26;19.40;99.90
18297;DHT22;18066;52.106;5.534;2023-10-08T11:53:01;19.30;99.90
18297;DHT22;18066;52.106;5.534;2023-10-08T11:55:29;19.20;99.90
18297;DHT22;18066;52.106;5.534;2023-10-08T11:58:00;19.20;99.90
18297;DHT22;18066;52.106;5.534;2023-10-08T12:00:37;19.20;99.90
18297;DHT22;18066;52.106;5.534;2023-10-08T12:03:09;19.40;99.90
18297;DHT22;18066;52.106;5.534;2023-10-08T12:05:37;19.50;99.90
18297;DHT22;18066;52.106;5.534;2023-10-08T12:08:13;19.50;99.90
18297;DHT22;18066;52.106;5.534;2023-10-08T12:10:42;19.60;99.90
18297;DHT22;18066;52.106;5.534;2023-10-08T12:13:08;19.50;99.90
18297;DHT22;18066;52.106;5.534;2023-10-08T12:15:37;19.60;99.90
18297;DHT22;18066;52.106;5.534;2023-10-08T12:18:07;19.60;99.90
18297;DHT22;18066;52.106;5.534;2023-10-08T12:20:41;19.70;99.90
18297;DHT22;18066;52.106;5.534;2023-10-08T12:23:11;19.80;99.90
18297;DHT22;18066;52.106;5.534;2023-10-08T12:25:45;19.80;99.90
18297;DHT22;18066;52.106;5.534;2023-10-08T12:28:16;19.70;99.90
18297;DHT22;18066;52.106;5.534;2023-10-08T12:30:45;19.70;99.90
18297;DHT22;18066;52.106;5.534;2023-10-08T12:33:14;19.60;99.90
18297;DHT22;18066;52.106;5.534;2023-10-08T12:35:42;19.60;99.90
18297;DHT22;18066;52.106;5.534;2023-10-08T12:38:10;19.60;99.90
18297;DHT22;18066;52.106;5.534;2023-10-08T12:40:38;19.50;99.90
18297;DHT22;18066;52.106;5.534;2023-10-08T12:43:18;19.50;99.90
18297;DHT22;18066;52.106;5.534;2023-10-08T12:45:48;19.50;99.90
18297;DHT22;18066;52.106;5.534;2023-10-08T12:48:22;19.50;99.90
18297;DHT22;18066;52.106;5.534;2023-10-08T12:50:50;19.40;99.90
18297;DHT22;18066;52.106;5.534;2023-10-08T12:53:22;19.40;99.90
18297;DHT22;18066;52.106;5.534;2023-10-08T12:55:53;19.40;99.90
18297;DHT22;18066;52.106;5.534;2023-10-08T12:58:23;19.40;99.90
18297;DHT22;18066;52.106;5.534;2023-10-08T13:00:53;19.40;99.90
18297;DHT22;18066;52.106;5.534;2023-10-08T13:03:25;19.40;99.90
18297;DHT22;18066;52.106;5.534;2023-10-08T13:05:56;19.40;99.90
18297;DHT22;18066;52.106;5.534;2023-10-08T13:08:29;19.30;99.90
18297;DHT22;18066;52.106;5.534;2023-10-08T13:10:56;19.30;99.90
18297;DHT22;18066;52.106;5.534;2023-10-08T13:13:26;19.30;99.90
18297;DHT22;18066;52.106;5.534;2023-10-08T13:15:55;19.30;99.90
18297;DHT22;18066;52.106;5.534;2023-10-08T13:18:25;19.20;99.90
18297;DHT22;18066;52.106;5.534;2023-10-08T13:20:53;19.20;99.90
18297;DHT22;18066;52.106;5.534;2023-10-08T13:23:20;19.20;99.90
18297;DHT22;18066;52.106;5.534;2023-10-08T13:25:49;19.20;99.90
18297;DHT22;18066;52.106;5.534;2023-10-08T13:28:19;19.10;99.90
18297;DHT22;18066;52.106;5.534;2023-10-08T13:30:48;19.20;99.90
18297;DHT22;18066;52.106;5.534;2023-10-08T13:33:19;19.20;99.90
18297;DHT22;18066;52.106;5.534;2023-10-08T13:35:46;19.30;99.90
18297;DHT22;18066;52.106;5.534;2023-10-08T13:38:16;19.40;99.90
18297;DHT22;18066;52.106;5.534;2023-10-08T13:40:45;19.50;99.90
18297;DHT22;18066;52.106;5.534;2023-10-08T13:43:28;19.60;99.90
18297;DHT22;18066;52.106;5.534;2023-10-08T13:46:00;19.50;99.90
18297;DHT22;18066;52.106;5.534;2023-10-08T13:48:31;19.40;99.90
18297;DHT22;18066;52.106;5.534;2023-10-08T13:51:00;19.40;99.90
18297;DHT22;18066;52.106;5.534;2023-10-08T13:53:29;19.40;99.90
18297;DHT22;18066;52.106;5.534;2023-10-08T13:55:57;19.40;99.90
18297;DHT22;18066;52.106;5.534;2023-10-08T13:58:26;19.50;99.90
18297;DHT22;18066;52.106;5.534;2023-10-08T14:00:55;19.60;99.90
18297;DHT22;18066;52.106;5.534;2023-10-08T14:03:22;19.50;99.90
18297;DHT22;18066;52.106;5.534;2023-10-08T14:05:51;19.50;99.90
18297;DHT22;18066;52.106;5.534;2023-10-08T14:08:20;19.40;99.90
18297;DHT22;18066;52.106;5.534;2023-10-08T14:10:47;19.50;99.90
18297;DHT22;18066;52.106;5.534;2023-10-08T14:13:15;19.40;99.90
18297;DHT22;18066;52.106;5.534;2023-10-08T14:15:46;19.50;99.90
18297;DHT22;18066;52.106;5.534;2023-10-08T14:18:15;19.40;99.90
18297;DHT22;18066;52.106;5.534;2023-10-08T14:20:44;19.40;99.90
18297;DHT22;18066;52.106;5.534;2023-10-08T14:23:21;19.40;99.90
18297;DHT22;18066;52.106;5.534;2023-10-08T14:25:50;19.40;99.90
18297;DHT22;18066;52.106;5.534;2023-10-08T14:28:18;19.40;99.90
18297;DHT22;18066;52.106;5.534;2023-10-08T14:30:58;19.40;99.90
18297;DHT22;18066;52.106;5.534;2023-10-08T14:33:28;19.30;99.90
18297;DHT22;18066;52.106;5.534;2023-10-08T14:35:57;19.30;99.90
18297;DHT22;18066;52.106;5.534;2023-10-08T14:38:43;19.30;99.90
18297;DHT22;18066;52.106;5.534;2023-10-08T14:41:27;19.30;99.90
18297;DHT22;18066;52.106;5.534;2023-10-08T14:44:11;19.30;99.90
18297;DHT22;18066;52.106;5.534;2023-10-08T14:46:40;19.30;99.90
18297;DHT22;18066;52.106;5.534;2023-10-08T14:49:07;19.20;99.90
18297;DHT22;18066;52.106;5.534;2023-10-08T14:51:37;19.30;99.90
18297;DHT22;18066;52.106;5.534;2023-10-08T14:54:07;19.20;99.90
18297;DHT22;18066;52.106;5.534;2023-10-08T14:56:35;19.20;99.90
18297;DHT22;18066;52.106;5.534;2023-10-08T14:59:02;19.20;99.90
18297;DHT22;18066;52.106;5.534;2023-10-08T15:01:28;19.30;99.90
18297;DHT22;18066;52.106;5.534;2023-10-08T15:03:58;19.30;99.90
18297;DHT22;18066;52.106;5.534;2023-10-08T15:06:29;19.30;99.90
18297;DHT22;18066;52.106;5.534;2023-10-08T15:08:56;19.30;99.90
18297;DHT22;18066;52.106;5.534;2023-10-08T15:11:25;19.20;99.90
18297;DHT22;18066;52.106;5.534;2023-10-08T15:13:56;19.20;99.90
18297;DHT22;18066;52.106;5.534;2023-10-08T15:16:23;19.20;99.90
18297;DHT22;18066;52.106;5.534;2023-10-08T15:18:51;19.20;99.90
18297;DHT22;18066;52.106;5.534;2023-10-08T15:21:19;19.10;99.90
18297;DHT22;18066;52.106;5.534;2023-10-08T15:23:47;19.10;99.90
18297;DHT22;18066;52.106;5.534;2023-10-08T15:26:14;18.90;99.90
18297;DHT22;18066;52.106;5.534;2023-10-08T15:28:44;18.70;99.90
18297;DHT22;18066;52.106;5.534;2023-10-08T15:31:11;18.70;99.90
18297;DHT22;18066;52.106;5.534;2023-10-08T15:33:38;18.60;99.90
18297;DHT22;18066;52.106;5.534;2023-10-08T15:36:05;18.60;99.90
18297;DHT22;18066;52.106;5.534;2023-10-08T15:38:32;18.60;99.90
18297;DHT22;18066;52.106;5.534;2023-10-08T15:40:59;18.70;99.90
18297;DHT22;18066;52.106;5.534;2023-10-08T15:43:26;18.70;99.90
18297;DHT22;18066;52.106;5.534;2023-10-08T15:45:55;18.70;99.90
18297;DHT22;18066;52.106;5.534;2023-10-08T15:48:21;18.70;99.90
18297;DHT22;18066;52.106;5.534;2023-10-08T15:50:50;18.70;99.90
18297;DHT22;18066;52.106;5.534;2023-10-08T15:53:17;18.60;99.90
18297;DHT22;18066;52.106;5.534;2023-10-08T15:55:44;18.50;99.90